createdAt,value
2023-07-18T00:00:21.082Z,1.90
2023-07-18T00:02:49.768Z,1.70
2023-07-18T00:05:18.450Z,2.03
2023-07-18T00:07:46.624Z,2.10
2023-07-18T00:10:16.565Z,1.88
2023-07-18T00:12:45.056Z,1.80
2023-07-18T00:15:14.289Z,1.52
2023-07-18T00:17:42.714Z,3.08
2023-07-18T00:20:14.006Z,1.70
2023-07-18T00:22:42.785Z,1.70
2023-07-18T00:25:12.365Z,1.80
2023-07-18T00:27:42.150Z,1.80
2023-07-18T00:30:10.989Z,1.70
2023-07-18T00:32:39.199Z,2.30
2023-07-18T00:35:08.845Z,2.03
2023-07-18T00:37:36.997Z,1.90
2023-07-18T00:40:11.473Z,1.52
2023-07-18T00:42:41.229Z,2.13
2023-07-18T00:45:09.704Z,2.00
2023-07-18T00:47:39.299Z,1.70
2023-07-18T00:50:09.679Z,1.80
2023-07-18T00:52:39.811Z,1.90
2023-07-18T00:55:08.853Z,1.88
2023-07-18T00:57:37.493Z,1.90
2023-07-18T01:00:12.486Z,2.20
2023-07-18T01:02:41.879Z,2.08
2023-07-18T01:05:10.735Z,2.10
2023-07-18T01:07:40.301Z,2.10
2023-07-18T01:10:15.765Z,1.95
2023-07-18T01:12:44.097Z,1.75
2023-07-18T01:15:14.591Z,1.83
2023-07-18T01:17:47.150Z,1.90
2023-07-18T01:20:19.776Z,1.90
2023-07-18T01:22:50.414Z,2.15
2023-07-18T01:25:19.031Z,1.92
2023-07-18T01:27:47.297Z,1.90
2023-07-18T01:30:15.884Z,1.83
2023-07-18T01:32:45.304Z,2.10
2023-07-18T01:35:13.468Z,2.25
2023-07-18T01:37:41.665Z,2.00
2023-07-18T01:40:13.753Z,1.85
2023-07-18T01:42:41.917Z,1.88
2023-07-18T01:45:10.833Z,2.00
2023-07-18T01:47:39.241Z,2.50
2023-07-18T01:50:08.735Z,1.90
2023-07-18T01:52:37.817Z,2.00
2023-07-18T01:55:06.939Z,1.70
2023-07-18T01:57:44.713Z,1.90
2023-07-18T02:00:13.908Z,1.95
2023-07-18T02:02:42.308Z,2.10
2023-07-18T02:05:10.633Z,2.30
2023-07-18T02:07:38.807Z,2.55
2023-07-18T02:10:07.934Z,2.30
2023-07-18T02:12:37.511Z,2.15
2023-07-18T02:15:07.774Z,2.13
2023-07-18T02:17:35.986Z,2.20
2023-07-18T02:20:07.287Z,2.28
2023-07-18T02:22:36.125Z,2.40
2023-07-18T02:25:04.841Z,2.72
2023-07-18T02:27:33.531Z,2.65
2023-07-18T02:30:03.236Z,2.63
2023-07-18T02:32:31.441Z,2.60
2023-07-18T02:34:59.629Z,2.20
2023-07-18T02:37:27.936Z,2.30
2023-07-18T02:39:56.250Z,2.50
2023-07-18T02:42:24.388Z,2.55
2023-07-18T02:44:52.633Z,3.33
2023-07-18T02:47:22.282Z,2.90
2023-07-18T02:49:50.480Z,2.47
2023-07-18T02:52:18.617Z,2.45
2023-07-18T02:54:46.803Z,2.65
2023-07-18T02:57:15.117Z,2.33
2023-07-18T02:59:43.340Z,2.70
2023-07-18T03:02:12.109Z,2.70
2023-07-18T03:04:41.693Z,2.30
2023-07-18T03:07:09.854Z,2.55
2023-07-18T03:09:38.210Z,2.63
2023-07-18T03:12:07.445Z,2.88
2023-07-18T03:14:36.943Z,2.80
2023-07-18T03:17:05.373Z,2.97
2023-07-18T03:19:34.013Z,2.75
2023-07-18T03:22:04.754Z,2.40
2023-07-18T03:24:35.242Z,2.72
2023-07-18T03:27:04.494Z,2.70
2023-07-18T03:29:32.668Z,3.97
2023-07-18T03:32:02.138Z,3.90
2023-07-18T03:34:30.637Z,2.78
2023-07-18T03:36:58.791Z,2.30
2023-07-18T03:39:28.380Z,2.60
2023-07-18T03:41:56.525Z,2.67
2023-07-18T03:44:24.979Z,2.50
2023-07-18T03:46:59.206Z,2.90
2023-07-18T03:49:39.190Z,3.15
2023-07-18T03:52:07.902Z,2.70
2023-07-18T03:54:37.444Z,2.90
2023-07-18T03:57:06.718Z,2.33
2023-07-18T03:59:34.907Z,2.92
2023-07-18T04:02:03.111Z,2.92
2023-07-18T04:04:32.621Z,3.13
2023-07-18T04:07:00.828Z,2.70
2023-07-18T04:09:29.356Z,2.75
2023-07-18T04:11:58.927Z,2.75
2023-07-18T04:14:27.138Z,3.33
2023-07-18T04:16:55.309Z,2.92
2023-07-18T04:19:23.487Z,2.75
2023-07-18T04:21:51.612Z,2.97
2023-07-18T04:24:19.705Z,2.67
2023-07-18T04:26:48.715Z,2.53
2023-07-18T04:29:20.158Z,3.15
2023-07-18T04:31:49.339Z,3.20
2023-07-18T04:34:18.161Z,2.30
2023-07-18T04:36:46.682Z,2.63
2023-07-18T04:39:15.886Z,5.07
2023-07-18T04:41:54.411Z,2.88
2023-07-18T04:44:25.128Z,2.78
2023-07-18T04:46:54.774Z,2.70
2023-07-18T04:49:23.582Z,2.90
2023-07-18T04:51:52.698Z,2.80
2023-07-18T04:54:21.158Z,3.20
2023-07-18T04:56:49.882Z,2.85
2023-07-18T04:59:18.055Z,3.05
2023-07-18T05:01:47.632Z,2.40
2023-07-18T05:04:15.831Z,2.70
2023-07-18T05:06:44.058Z,2.70
2023-07-18T05:09:12.262Z,2.72
2023-07-18T05:11:40.560Z,2.65
2023-07-18T05:14:08.741Z,2.25
2023-07-18T05:16:36.985Z,2.88
2023-07-18T05:19:06.827Z,2.55
2023-07-18T05:21:34.986Z,2.70
2023-07-18T05:24:03.140Z,2.67
2023-07-18T05:26:31.322Z,3.00
2023-07-18T05:28:59.481Z,2.58
2023-07-18T05:31:27.830Z,2.88
2023-07-18T05:33:55.994Z,2.55
2023-07-18T05:36:26.612Z,2.72
2023-07-18T05:38:54.782Z,2.70
2023-07-18T05:41:23.022Z,2.80
2023-07-18T05:43:51.176Z,2.83
2023-07-18T05:46:19.511Z,3.08
2023-07-18T05:48:47.743Z,2.80
2023-07-18T05:51:15.924Z,2.33
2023-07-18T05:53:46.111Z,2.95
2023-07-18T05:56:14.421Z,2.97
2023-07-18T05:58:42.560Z,2.70
2023-07-18T06:01:13.955Z,2.90
2023-07-18T06:03:42.424Z,2.75
2023-07-18T06:06:10.857Z,2.75
2023-07-18T06:08:39.013Z,2.80
2023-07-18T06:11:08.630Z,2.70
2023-07-18T06:13:36.894Z,2.70
2023-07-18T06:16:05.479Z,3.08
2023-07-18T06:18:33.650Z,2.55
2023-07-18T06:21:02.288Z,4.57
2023-07-18T06:23:31.574Z,3.47
2023-07-18T06:25:59.916Z,2.92
2023-07-18T06:28:30.394Z,2.40
2023-07-18T06:30:58.850Z,2.58
2023-07-18T06:33:27.665Z,2.80
2023-07-18T06:35:56.569Z,2.97
2023-07-18T06:38:27.289Z,2.90
2023-07-18T06:40:56.474Z,2.72
2023-07-18T06:43:25.782Z,2.50
2023-07-18T06:45:55.313Z,2.55
2023-07-18T06:48:23.490Z,3.08
2023-07-18T06:50:52.805Z,2.53
2023-07-18T06:53:21.814Z,2.83
2023-07-18T06:55:50.352Z,3.08
2023-07-18T06:58:18.633Z,2.50
2023-07-18T07:00:47.521Z,2.58
2023-07-18T07:03:17.173Z,2.83
2023-07-18T07:05:45.862Z,2.70
2023-07-18T07:08:15.166Z,2.95
2023-07-18T07:10:43.838Z,3.00
2023-07-18T07:13:12.117Z,2.58
2023-07-18T07:15:40.300Z,3.05
2023-07-18T07:18:08.612Z,3.03
2023-07-18T07:20:38.255Z,2.55
2023-07-18T07:23:06.484Z,2.90
2023-07-18T07:25:35.054Z,2.53
2023-07-18T07:28:03.215Z,2.95
2023-07-18T07:30:31.407Z,2.30
2023-07-18T07:32:59.597Z,2.42
2023-07-18T07:35:28.033Z,2.50
2023-07-18T07:37:57.948Z,2.92
2023-07-18T07:40:26.154Z,2.42
2023-07-18T07:42:54.336Z,2.50
2023-07-18T07:45:23.104Z,2.50
2023-07-18T07:47:51.333Z,2.00
2023-07-18T07:50:19.657Z,2.22
2023-07-18T07:52:47.815Z,2.40
2023-07-18T07:55:17.570Z,2.72
2023-07-18T07:57:46.378Z,2.50
2023-07-18T08:00:15.611Z,2.20
2023-07-18T08:02:43.894Z,2.55
2023-07-18T08:05:12.108Z,2.60
2023-07-18T08:07:41.009Z,2.25
2023-07-18T08:10:09.946Z,2.85
2023-07-18T08:12:39.658Z,2.20
2023-07-18T08:15:09.116Z,2.38
2023-07-18T08:17:37.308Z,2.08
2023-07-18T08:20:07.933Z,2.30
2023-07-18T08:22:36.489Z,2.38
2023-07-18T08:25:05.118Z,2.33
2023-07-18T08:27:33.416Z,2.03
2023-07-18T08:30:02.984Z,2.17
2023-07-18T08:32:31.313Z,2.40
2023-07-18T08:34:59.558Z,2.35
2023-07-18T08:37:27.683Z,2.10
2023-07-18T08:39:55.843Z,2.25
2023-07-18T08:42:26.237Z,2.22
2023-07-18T08:44:55.175Z,2.55
2023-07-18T08:47:25.564Z,2.88
2023-07-18T08:49:53.884Z,2.30
2023-07-18T08:52:22.129Z,2.17
2023-07-18T08:54:51.125Z,2.30
2023-07-18T08:57:19.388Z,2.08
2023-07-18T08:59:47.572Z,2.50
2023-07-18T09:02:15.783Z,2.45
2023-07-18T09:04:47.188Z,2.42
2023-07-18T09:07:15.806Z,2.58
2023-07-18T09:09:48.196Z,2.55
2023-07-18T09:12:17.349Z,2.20
2023-07-18T09:14:45.566Z,2.78
2023-07-18T09:17:13.848Z,2.30
2023-07-18T09:19:42.799Z,2.00
2023-07-18T09:22:14.350Z,3.17
2023-07-18T09:24:44.735Z,2.00
2023-07-18T09:27:17.062Z,1.90
2023-07-18T09:29:46.017Z,2.08
2023-07-18T09:32:17.736Z,1.90
2023-07-18T09:34:53.177Z,2.08
2023-07-18T09:39:51.228Z,2.10
2023-07-18T09:42:20.246Z,2.13
2023-07-18T09:44:52.098Z,2.03
2023-07-18T09:47:21.848Z,2.05
2023-07-18T09:49:51.657Z,2.28
2023-07-18T09:52:20.891Z,2.47
2023-07-18T09:54:50.530Z,2.25
2023-07-18T09:57:18.746Z,2.20
2023-07-18T09:59:46.919Z,2.20
2023-07-18T10:02:15.338Z,2.05
2023-07-18T10:04:43.521Z,1.88
2023-07-18T10:07:11.672Z,1.90
2023-07-18T10:09:39.796Z,1.90
2023-07-18T10:12:13.054Z,2.15
2023-07-18T10:14:58.023Z,2.00
2023-07-18T10:17:37.596Z,2.22
2023-07-18T10:20:14.424Z,2.30
2023-07-18T10:22:50.870Z,1.90
2023-07-18T10:25:20.137Z,2.20
2023-07-18T10:27:50.622Z,2.25
2023-07-18T10:30:21.733Z,1.95
2023-07-18T10:32:54.566Z,2.15
2023-07-18T10:35:23.893Z,2.30
2023-07-18T10:37:53.837Z,2.25
2023-07-18T10:40:37.639Z,1.80
2023-07-18T10:43:10.147Z,2.05
2023-07-18T10:45:41.965Z,1.90
2023-07-18T10:48:18.904Z,2.30
2023-07-18T10:50:50.697Z,1.90
2023-07-18T10:53:20.183Z,2.00
2023-07-18T10:55:48.962Z,2.40
2023-07-18T10:58:19.628Z,2.70
2023-07-18T11:00:48.360Z,2.33
2023-07-18T11:03:23.308Z,2.40
2023-07-18T11:05:52.317Z,1.88
2023-07-18T11:08:27.236Z,2.33
2023-07-18T11:10:56.738Z,2.30
2023-07-18T11:13:32.720Z,2.22
2023-07-18T11:16:05.236Z,2.58
2023-07-18T11:18:35.930Z,2.35
2023-07-18T11:21:05.345Z,2.42
2023-07-18T11:23:34.012Z,2.10
2023-07-18T11:26:02.573Z,1.95
2023-07-18T11:28:33.858Z,3.28
2023-07-18T11:31:02.483Z,2.10
2023-07-18T11:33:31.088Z,2.10
2023-07-18T11:35:59.473Z,2.15
2023-07-18T11:38:30.765Z,2.40
2023-07-18T11:41:00.676Z,2.50
2023-07-18T11:43:32.754Z,2.35
2023-07-18T11:46:01.135Z,2.50
2023-07-18T11:48:30.022Z,2.30
2023-07-18T11:50:58.338Z,2.15
2023-07-18T11:53:27.780Z,2.58
2023-07-18T11:55:57.106Z,2.15
2023-07-18T11:58:25.724Z,2.22
2023-07-18T12:00:59.985Z,2.55
2023-07-18T12:03:28.349Z,2.92
2023-07-18T12:05:56.788Z,2.17
2023-07-18T12:08:26.044Z,3.15
2023-07-18T12:11:08.841Z,2.92
2023-07-18T12:13:38.575Z,2.17
2023-07-18T12:16:08.292Z,2.40
2023-07-18T12:18:36.560Z,2.10
2023-07-18T12:21:04.902Z,2.63
2023-07-18T12:23:33.096Z,2.63
2023-07-18T12:26:01.283Z,2.40
2023-07-18T12:28:29.410Z,2.75
2023-07-18T12:30:57.617Z,2.47
2023-07-18T12:33:27.205Z,2.53
2023-07-18T12:35:56.073Z,2.53
2023-07-18T12:38:27.554Z,2.95
2023-07-18T12:40:57.242Z,2.60
2023-07-18T12:43:25.549Z,2.55
2023-07-18T12:45:54.836Z,2.83
2023-07-18T12:48:23.032Z,2.75
2023-07-18T12:50:54.184Z,2.40
2023-07-18T12:53:22.338Z,3.17
2023-07-18T12:55:50.544Z,2.50
2023-07-18T12:58:18.777Z,2.40
2023-07-18T13:00:46.987Z,2.40
2023-07-18T13:03:15.233Z,2.58
2023-07-18T13:05:44.436Z,2.90
2023-07-18T13:08:14.165Z,2.70
2023-07-18T13:10:42.300Z,2.30
2023-07-18T13:13:10.492Z,2.50
2023-07-18T13:15:38.693Z,2.35
2023-07-18T13:18:09.675Z,3.20
2023-07-18T13:20:38.002Z,2.53
2023-07-18T13:23:06.269Z,8.77
2023-07-18T13:25:35.873Z,2.70
2023-07-18T13:28:05.573Z,2.40
2023-07-18T13:30:33.750Z,3.55
2023-07-18T13:33:02.290Z,2.88
2023-07-18T13:35:30.590Z,3.72
2023-07-18T13:37:58.764Z,2.60
2023-07-18T13:40:27.824Z,2.70
2023-07-18T13:42:57.348Z,2.78
2023-07-18T13:45:25.935Z,2.65
2023-07-18T13:47:56.269Z,2.20
2023-07-18T13:52:55.879Z,2.40
2023-07-18T13:55:24.122Z,2.55
2023-07-18T13:57:52.244Z,3.00
2023-07-18T14:00:22.325Z,2.42
2023-07-18T14:02:50.868Z,2.60
2023-07-18T14:05:19.274Z,2.78
2023-07-18T14:07:47.417Z,2.50
2023-07-18T14:10:15.610Z,2.53
2023-07-18T14:12:44.721Z,2.40
2023-07-18T14:15:13.987Z,2.17
2023-07-18T14:17:43.576Z,2.53
2023-07-18T14:20:13.587Z,2.53
2023-07-18T14:22:43.517Z,2.78
2023-07-18T14:25:12.577Z,2.60
2023-07-18T14:27:40.758Z,3.05
2023-07-18T14:30:10.274Z,2.30
2023-07-18T14:32:39.742Z,2.45
2023-07-18T14:35:10.551Z,2.30
2023-07-18T14:37:38.828Z,2.88
2023-07-18T14:40:09.221Z,2.40
2023-07-18T14:42:37.473Z,2.67
2023-07-18T14:45:06.445Z,2.50
2023-07-18T14:47:35.248Z,2.50
2023-07-18T14:50:03.725Z,3.20
2023-07-18T14:52:33.875Z,2.63
2023-07-18T14:55:02.055Z,2.20
2023-07-18T14:57:30.284Z,2.70
2023-07-18T14:59:58.422Z,2.75
2023-07-18T15:02:26.572Z,2.80
2023-07-18T15:04:54.949Z,2.70
2023-07-18T15:07:23.638Z,2.72
2023-07-18T15:09:53.213Z,2.63
2023-07-18T15:12:21.711Z,2.47
2023-07-18T15:14:50.473Z,2.20
2023-07-18T15:17:18.625Z,2.90
2023-07-18T15:19:50.671Z,2.45
2023-07-18T15:22:19.928Z,2.47
2023-07-18T15:24:48.891Z,2.40
2023-07-18T15:27:18.486Z,3.05
2023-07-18T15:29:47.997Z,2.55
2023-07-18T15:32:16.127Z,2.50
2023-07-18T15:34:44.659Z,2.53
2023-07-18T15:37:12.856Z,2.20
2023-07-18T15:39:41.009Z,2.33
2023-07-18T15:42:09.752Z,2.70
2023-07-18T15:44:39.386Z,2.45
2023-07-18T15:47:07.797Z,2.25
2023-07-18T15:49:36.671Z,2.47
2023-07-18T15:52:05.559Z,2.50
2023-07-18T15:54:33.698Z,2.72
2023-07-18T15:57:02.115Z,2.75
2023-07-18T15:59:31.440Z,2.60
2023-07-18T16:02:01.067Z,2.42
2023-07-18T16:04:29.289Z,2.50
2023-07-18T16:06:57.498Z,5.05
2023-07-18T16:09:29.147Z,2.83
2023-07-18T16:11:57.682Z,2.42
2023-07-18T16:14:26.236Z,2.22
2023-07-18T16:16:55.952Z,2.55
2023-07-18T16:19:25.620Z,2.45
2023-07-18T16:21:53.796Z,3.10
2023-07-18T16:24:21.968Z,2.53
2023-07-18T16:26:50.153Z,3.03
2023-07-18T16:29:18.305Z,2.80
2023-07-18T16:31:46.464Z,2.40
2023-07-18T16:34:15.934Z,3.00
2023-07-18T16:36:45.389Z,2.40
2023-07-18T16:39:13.561Z,2.97
2023-07-18T16:41:42.381Z,2.90
2023-07-18T16:44:11.044Z,2.20
2023-07-18T16:46:39.266Z,2.28
2023-07-18T16:49:07.507Z,3.10
2023-07-18T16:51:35.686Z,2.55
2023-07-18T16:54:05.296Z,3.50
2023-07-18T16:56:35.033Z,2.72
2023-07-18T16:59:04.810Z,2.90
2023-07-18T17:01:33.418Z,2.25
2023-07-18T17:04:02.696Z,2.92
2023-07-18T17:06:31.888Z,3.10
2023-07-18T17:09:00.036Z,2.53
2023-07-18T17:11:29.598Z,2.47
2023-07-18T17:13:57.796Z,2.83
2023-07-18T17:16:26.046Z,3.10
2023-07-18T17:18:54.218Z,2.45
2023-07-18T17:21:22.369Z,2.60
2023-07-18T17:23:50.892Z,2.50
2023-07-18T17:26:19.260Z,2.92
2023-07-18T17:28:49.044Z,3.10
2023-07-18T17:31:17.187Z,2.67
2023-07-18T17:33:45.465Z,2.75
2023-07-18T17:36:13.685Z,2.50
2023-07-18T17:38:41.829Z,2.60
2023-07-18T17:41:09.989Z,2.90
2023-07-18T17:43:38.235Z,2.90
2023-07-18T17:46:07.762Z,2.60
2023-07-18T17:48:35.989Z,2.63
2023-07-18T17:51:04.321Z,2.90
2023-07-18T17:53:32.874Z,2.58
2023-07-18T17:56:02.009Z,3.17
2023-07-18T17:58:30.244Z,2.70
2023-07-18T18:00:58.610Z,3.13
2023-07-18T18:03:28.211Z,2.50
2023-07-18T18:05:56.507Z,3.40
2023-07-18T18:08:24.902Z,2.40
2023-07-18T18:10:53.279Z,2.90
2023-07-18T18:13:21.532Z,2.50
2023-07-18T18:16:05.598Z,2.60
2023-07-18T18:18:36.640Z,2.75
2023-07-18T18:21:05.342Z,2.40
2023-07-18T18:26:05.071Z,3.40
2023-07-18T18:28:33.541Z,2.80
2023-07-18T18:31:01.889Z,2.70
2023-07-18T18:33:30.192Z,3.25
2023-07-18T18:36:00.341Z,3.00
2023-07-18T18:38:28.612Z,2.75
2023-07-18T18:40:56.823Z,2.72
2023-07-18T18:43:25.106Z,3.10
2023-07-18T18:45:53.392Z,3.08
2023-07-18T18:48:21.563Z,2.70
2023-07-18T18:50:49.909Z,3.38
2023-07-18T18:53:20.522Z,2.97
2023-07-18T18:55:48.751Z,3.22
2023-07-18T18:58:16.902Z,3.10
2023-07-18T19:00:45.257Z,2.97
2023-07-18T19:03:13.625Z,2.78
2023-07-18T19:05:41.781Z,3.25
2023-07-18T19:08:09.937Z,3.00
2023-07-18T19:10:41.661Z,3.20
2023-07-18T19:13:12.254Z,3.10
2023-07-18T19:15:40.395Z,3.53
2023-07-18T19:18:08.675Z,4.18
2023-07-18T19:20:37.022Z,3.72
2023-07-18T19:23:05.200Z,3.38
2023-07-18T19:25:33.413Z,3.88
2023-07-18T19:28:02.928Z,3.75
2023-07-18T19:30:31.106Z,3.70
2023-07-18T19:32:59.316Z,3.67
2023-07-18T19:35:27.868Z,3.53
2023-07-18T19:37:56.010Z,3.28
2023-07-18T19:40:24.561Z,3.42
2023-07-18T19:42:52.671Z,3.63
2023-07-18T19:45:22.201Z,3.30
2023-07-18T19:47:50.402Z,3.88
2023-07-18T19:50:18.665Z,3.33
2023-07-18T19:52:46.812Z,4.28
2023-07-18T19:55:14.955Z,4.15
2023-07-18T19:57:43.506Z,4.47
2023-07-18T20:00:12.479Z,3.63
2023-07-18T20:02:42.178Z,4.53
2023-07-18T20:05:11.016Z,3.80
2023-07-18T20:07:40.135Z,3.90
2023-07-18T20:10:09.559Z,4.10
2023-07-18T20:12:38.094Z,4.05
2023-07-18T20:15:07.182Z,4.05
2023-07-18T20:17:35.396Z,3.53
2023-07-18T20:20:05.370Z,4.07
2023-07-18T20:22:33.581Z,3.70
2023-07-18T20:25:01.693Z,4.07
2023-07-18T20:27:30.068Z,4.13
2023-07-18T20:29:59.008Z,3.20
2023-07-18T20:32:27.218Z,3.90
2023-07-18T20:34:55.379Z,3.50
2023-07-18T20:37:24.941Z,3.17
2023-07-18T20:39:53.174Z,3.90
2023-07-18T20:42:21.309Z,3.42
2023-07-18T20:44:49.466Z,3.53
2023-07-18T20:47:17.581Z,3.60
2023-07-18T20:49:45.781Z,4.10
2023-07-18T20:52:14.607Z,4.35
2023-07-18T20:54:44.140Z,3.90
2023-07-18T20:57:12.781Z,3.72
2023-07-18T20:59:40.986Z,4.00
2023-07-18T21:02:09.104Z,4.03
2023-07-18T21:04:37.253Z,3.70
2023-07-18T21:07:05.958Z,3.88
2023-07-18T21:09:34.128Z,4.40
2023-07-18T21:12:03.667Z,4.18
2023-07-18T21:14:31.972Z,3.92
2023-07-18T21:17:00.790Z,3.95
2023-07-18T21:19:28.968Z,4.38
2023-07-18T21:21:57.267Z,3.72
2023-07-18T21:24:25.447Z,3.53
2023-07-18T21:26:53.652Z,3.63
2023-07-18T21:29:23.671Z,4.45
2023-07-18T21:31:53.942Z,4.13
2023-07-18T21:34:23.900Z,3.22
2023-07-18T21:36:52.060Z,4.20
2023-07-18T21:39:20.164Z,3.72
2023-07-18T21:41:48.362Z,3.83
2023-07-18T21:44:16.756Z,3.72
2023-07-18T21:46:46.440Z,3.95
2023-07-18T21:49:14.697Z,3.95
2023-07-18T21:51:42.838Z,3.78
2023-07-18T21:54:11.242Z,4.43
2023-07-18T21:56:39.400Z,4.03
2023-07-18T21:59:07.540Z,3.85
2023-07-18T22:01:35.729Z,3.70
2023-07-18T22:04:05.445Z,3.78
2023-07-18T22:06:34.029Z,4.05
2023-07-18T22:09:02.181Z,3.90
2023-07-18T22:11:30.299Z,3.85
2023-07-18T22:13:58.472Z,4.07
2023-07-18T22:16:26.645Z,4.05
2023-07-18T22:18:54.823Z,3.92
2023-07-18T22:21:24.318Z,4.05
2023-07-18T22:23:52.451Z,4.18
2023-07-18T22:26:20.588Z,3.95
2023-07-18T22:28:48.728Z,4.18
2023-07-18T22:31:17.599Z,3.88
2023-07-18T22:33:45.877Z,3.85
2023-07-18T22:36:14.078Z,3.95
2023-07-18T22:38:43.553Z,4.03
2023-07-18T22:41:12.186Z,4.35
2023-07-18T22:43:40.510Z,3.70
2023-07-18T22:46:08.758Z,4.10
2023-07-18T22:48:36.908Z,4.22
2023-07-18T22:51:05.150Z,3.78
2023-07-18T22:53:33.828Z,4.38
2023-07-18T22:56:03.388Z,3.97
2023-07-18T22:58:31.553Z,4.47
2023-07-18T23:00:59.849Z,3.83
2023-07-18T23:03:28.191Z,4.00
2023-07-18T23:05:56.490Z,4.25
2023-07-18T23:08:24.619Z,3.65
2023-07-18T23:10:52.762Z,4.70
2023-07-18T23:13:22.311Z,4.18
2023-07-18T23:15:51.055Z,4.25
2023-07-18T23:18:19.213Z,4.07
2023-07-18T23:20:47.347Z,4.47
2023-07-18T23:23:15.621Z,4.38
2023-07-18T23:25:43.826Z,4.10
2023-07-18T23:28:15.966Z,4.10
2023-07-18T23:30:45.529Z,4.45
2023-07-18T23:33:13.689Z,4.05
2023-07-18T23:35:41.815Z,4.30
2023-07-18T23:38:09.985Z,4.22
2023-07-18T23:40:38.192Z,4.20
2023-07-18T23:43:07.315Z,4.07
2023-07-18T23:45:35.484Z,4.20
2023-07-18T23:48:05.363Z,3.92
2023-07-18T23:50:33.562Z,4.20
2023-07-18T23:53:01.715Z,4.45
2023-07-18T23:55:29.826Z,4.25
2023-07-18T23:57:57.964Z,4.35
